Latest Conditions
At L.F.Wade Int. Airport
Recorded at 2:22 am
Rain
Temp.: 
14°C/58°F
Humidity: 
81%
Wind: 
N 12KT
or 14mph
UV Index: 
0
Island Observations
 
Observations
Sunday, March 07, 2021

Observations are in local time and taken at least once an hour, or upon the start and end of specified events such as showers and thunderstorms.

Time Sky / Weather Wind Speed/Gusts Temp. R.H. Pressure
     knots (mph)  °C (°F)  %  mb / "Hg
 02:22 Overcast Rain N 12/0 (14/0) 14(58) 81 1017 / 30.04
 01:55 Overcast Rain NNE 8/0 (9/0) 15(59) 89 1019 / 30.10
 01:45 Overcast Rain NNE 8/0 (9/0) 15(60) 88 1020 / 30.11
 01:26 Overcast Rain NNE 8/0 (9/0) 15(59) 87 1019 / 30.10
 00:55 Overcast Rain NE 7/0 (8/0) 16(60) 84 1020 / 30.12
 00:45 Overcast Rain ENE 7/0 (8/0) 16(60) 83 1020 / 30.12
 00:28 Overcast Drizzle E 5/0 (6/0) 16(60) 83 1020 / 30.12
 23:55 Overcast Rain ENE 6/0 (7/0) 15(60) 84 1020 / 30.12
 22:55 Overcast Rain ENE 5/0 (6/0) 16(61) 76 1020 / 30.13
 22:26 Overcast Rain E 5/0 (6/0) 17(62) 70 1021 / 30.14
 21:55 Overcast  ENE 5/0 (6/0) 17(62) 66 1021 / 30.15
 20:55 Overcast  ENE 6/0 (7/0) 16(62) 66 1020 / 30.13
 19:55 Overcast  ENE 3/0 (3/0) 16(61) 67 1020 / 30.13
 18:55 Mostly Cloudy  NE 1/0 (1/0) 16(62) 63 1020 / 30.12
 17:55 Mostly Cloudy  NNW 4/0 (5/0) 16(62) 62 1020 / 30.11
 16:55 Mostly Cloudy  NW 6/0 (7/0) 17(63) 59 1020 / 30.12
 15:55 Mostly Cloudy  NW 8/0 (9/0) 18(64) 57 1019 / 30.10
 14:55 Mostly Cloudy  WNW 7/0 (8/0) 18(64) 59 1019 / 30.10
 13:55 Overcast  W 9/0 (10/0) 17(63) 59 1020 / 30.11
 12:55 Mostly Cloudy  WNW 6/0 (7/0) 18(64) 59 1020 / 30.11
 11:55 Mostly Cloudy  WNW 8/0 (9/0) 18(65) 58 1020 / 30.11
 10:55 Mostly Cloudy  W 8/0 (9/0) 18(65) 55 1019 / 30.10
 09:55 Few Clouds  WNW 9/0 (10/0) 18(64) 58 1019 / 30.10
 08:55 Few Clouds  NW 10/0 (12/0) 17(63) 61 1019 / 30.08
 07:55 Few Clouds  NW 7/0 (8/0) 17(62) 63 1018 / 30.05
 06:55 Mostly Cloudy  NW 9/0 (10/0) 16(60) 67 1017 / 30.04
 05:55 Mostly Cloudy Showers WNW 11/0 (13/0) 16(62) 69 1017 / 30.02
 04:55 Mostly Cloudy Showers WNW 12/0 (14/0) 17(62) 65 1016 / 30.00
 03:55 Mostly Cloudy  WNW 12/0 (14/0) 17(62) 63 1015 / 29.97
 02:55 Mostly Cloudy Showers W 12/0 (14/0) 17(63) 65 1015 / 29.97
 01:55 Partly Cloudy  WNW 9/0 (10/0) 16(60) 70 1015 / 29.97
 00:55 Mostly Cloudy  WSW 7/0 (8/0) 17(62) 69 1015 / 29.98
 00:07 Mostly Cloudy Showers W 13/0 (15/0) 15(60) 76 1015 / 29.98
 23:55 Mostly Cloudy Showers W 19/0 (22/0) 16(61) 77 1015 / 29.98
 23:34 Mostly Cloudy Showers W 13/0 (15/0) 18(64) 64 1015 / 29.97
 22:55 Mostly Cloudy Showers WSW 10/0 (12/0) 18(64) 62 1015 / 29.96
 21:55 Few Clouds  W 9/0 (10/0) 17(63) 61 1014 / 29.95
 20:55 Few Clouds  W 9/0 (10/0) 17(63) 59 1014 / 29.94
 19:55 Partly Cloudy  W 11/0 (13/0) 17(63) 60 1013 / 29.92
 18:55 Partly Cloudy  WNW 12/0 (14/0) 17(63) 61 1013 / 29.90
 17:55 Mostly Cloudy  WNW 11/0 (13/0) 17(63) 63 1012 / 29.89
 16:55 Mostly Cloudy  W 11/0 (13/0) 18(64) 67 1012 / 29.87
 16:15 Mostly Cloudy Showers W 9/0 (10/0) 17(63) 69 1011 / 29.86
 15:55 Mostly Cloudy Showers W 10/0 (12/0) 17(63) 69 1011 / 29.86
 14:55 Mostly Cloudy Showers NW 11/0 (13/0) 18(64) 66 1010 / 29.84
 13:55 Mostly Cloudy Showers NW 12/0 (14/0) 18(64) 69 1010 / 29.83
 12:55 Partly Cloudy  NW 14/0 (16/0) 19(66) 70 1010 / 29.84
 12:33 Partly Cloudy  NW 14/0 (16/0) 19(66) 70 1011 / 29.85
 11:55 Mostly Cloudy Showers W 13/0 (15/0) 19(66) 58 1011 / 29.85
 10:55 Mostly Cloudy  W 14/0 (16/0) 19(66) 64 1011 / 29.85
 09:55 Few Clouds  WSW 12/0 (14/0) 18(64) 72 1011 / 29.85
 08:55 Partly Cloudy Showers W 10/0 (12/0) 18(65) 65 1010 / 29.84
 07:55 Mostly Cloudy Showers W 6/0 (7/0) 17(62) 75 1010 / 29.83
 07:41 Mostly Cloudy Showers W 7/0 (8/0) 17(62) 76 1010 / 29.83
 07:29 Mostly Cloudy Showers W 10/0 (12/0) 17(62) 72 1010 / 29.83
 06:55 Mostly Cloudy Showers WSW 9/0 (10/0) 17(63) 65 1009 / 29.81
 06:38 Mostly Cloudy Showers W 7/0 (8/0) 17(63) 69 1009 / 29.81
 05:55 Partly Cloudy  WSW 7/0 (8/0) 17(63) 64 1009 / 29.80
 04:55 Few Clouds  WSW 8/0 (9/0) 17(62) 65 1009 / 29.79
 03:55 Few Clouds  W 6/0 (7/0) 15(59) 65 1008 / 29.78
 02:55 Few Clouds  WNW 6/0 (7/0) 15(59) 69 1009 / 29.80
 01:55 Mostly Cloudy  W 6/0 (7/0) 15(60) 65 1009 / 29.81
 00:55 Mostly Cloudy  W 6/0 (7/0) 17(62) 59 1010 / 29.82
 23:55 Partly Cloudy  WNW 5/0 (6/0) 15(59) 64 1010 / 29.82
 22:55 Partly Cloudy  NW 7/0 (8/0) 16(60) 65 1010 / 29.83
 21:55 Mostly Cloudy  WNW 5/0 (6/0) 16(60) 66 1010 / 29.83
 20:55 Partly Cloudy  NW 7/0 (8/0) 16(61) 63 1010 / 29.83
 19:55 Partly Cloudy  NW 7/0 (8/0) 17(62) 64 1010 / 29.82
 18:55 Partly Cloudy  NW 6/0 (7/0) 17(62) 68 1009 / 29.81
 17:55 Mostly Cloudy  NNW 6/0 (7/0) 18(64) 66 1009 / 29.79
 16:55 Partly Cloudy  NNW 9/0 (10/0) 18(65) 65 1008 / 29.77
 15:55 Partly Cloudy  N 10/0 (12/0) 18(65) 65 1007 / 29.75
 14:55 Mostly Cloudy  N 10/0 (12/0) 19(66) 69 1007 / 29.73
 13:55 Mostly Cloudy  N 12/0 (14/0) 19(67) 65 1006 / 29.70
 12:55 Mostly Cloudy  N 12/0 (14/0) 19(66) 71 1007 / 29.75
 12:32 Partly Cloudy  N 12/0 (14/0) 19(67) 71 1007 / 29.74
 11:55 Mostly Cloudy  N 13/0 (15/0) 19(65) 78 1007 / 29.75
 11:16 Mostly Cloudy  NNE 14/0 (16/0) 18(64) 82 1007 / 29.75
 11:08 Mostly Cloudy Drizzle NNE 13/0 (15/0) 17(63) 88 1007 / 29.74
 10:55 Mostly Cloudy Drizzle N 14/0 (16/0) 17(63) 91 1007 / 29.75
 10:27 Mostly Cloudy Showers N 13/0 (15/0) 18(64) 84 1007 / 29.74
 09:55 Mostly Cloudy  N 12/0 (14/0) 19(66) 79 1007 / 29.73
 08:55 Few Clouds  N 11/0 (13/0) 18(65) 77 1006 / 29.72
 08:14 Mostly Cloudy Showers NNE 10/0 (12/0) 17(63) 86 1006 / 29.70
 07:55 Mostly Cloudy Showers NNW 6/0 (7/0) 16(62) 93 1006 / 29.70
 06:55 Mostly Cloudy Showers W 3/0 (3/0) 17(63) 94 1005 / 29.69
 06:22 Mostly Cloudy  SSW 4/0 (5/0) 17(63) 93 1005 / 29.67
 05:55 Overcast Showers S 2/0 (2/0) 17(62) 95 1005 / 29.67
 04:55 Overcast Showers NW 9/0 (10/0) 17(63) 94 1005 / 29.67
 04:23 Overcast Rain NNW 8/0 (9/0) 18(65) 91 1005 / 29.68
 04:11 Overcast Showers WNW 15/0 (17/0) 18(65) 92 1005 / 29.68
 03:55 Overcast Showers W 14/0 (16/0) 18(64) 96 1004 / 29.65
 03:36 Overcast Showers W 21/0 (24/0) 18(64) 98 1005 / 29.67
 03:23 Overcast Thunderstorm W 21/0 (24/0) 18(64) 98 1005 / 29.68
 03:12 Overcast Thunderstorm WSW 18/0 (21/0) 18(64) 97 1005 / 29.68
 03:06 Overcast Showers WSW 16/0 (18/0) 18(65) 95 1005 / 29.67
 02:55 Overcast Rain W 18/0 (21/0) 18(65) 94 1004 / 29.65
 02:39 Overcast Rain W 19/0 (22/0) 19(66) 92 1004 / 29.66
 02:21 Overcast Rain WSW 18/0 (21/0) 19(67) 88 1005 / 29.67
 01:55 Overcast Rain SW 18/0 (21/0) 19(66) 88 1005 / 29.69
Island AWOS